sensor_id;sensor_type;location;lat;lon;timestamp;P1;durP1;ratioP1;P2;durP2;ratioP2
60851;SDS011;48553;50.766;2.900;2023-09-18T00:02:17;3.90;;;2.45;;
60851;SDS011;48553;50.766;2.900;2023-09-18T00:05:18;4.55;;;2.50;;
60851;SDS011;48553;50.766;2.900;2023-09-18T00:08:18;4.93;;;2.60;;
60851;SDS011;48553;50.766;2.900;2023-09-18T00:11:22;5.13;;;2.38;;
60851;SDS011;48553;50.766;2.900;2023-09-18T00:14:23;4.95;;;2.30;;
60851;SDS011;48553;50.766;2.900;2023-09-18T00:17:23;6.18;;;2.30;;
60851;SDS011;48553;50.766;2.900;2023-09-18T00:20:24;3.72;;;2.08;;
60851;SDS011;48553;50.766;2.900;2023-09-18T00:23:28;4.13;;;1.95;;
60851;SDS011;48553;50.766;2.900;2023-09-18T00:26:28;4.47;;;2.10;;
60851;SDS011;48553;50.766;2.900;2023-09-18T00:29:29;4.65;;;2.30;;
60851;SDS011;48553;50.766;2.900;2023-09-18T00:32:29;3.38;;;1.95;;
60851;SDS011;48553;50.766;2.900;2023-09-18T00:35:30;4.45;;;2.22;;
60851;SDS011;48553;50.766;2.900;2023-09-18T00:38:30;4.88;;;2.30;;
60851;SDS011;48553;50.766;2.900;2023-09-18T00:41:30;4.57;;;2.13;;
60851;SDS011;48553;50.766;2.900;2023-09-18T00:44:31;4.65;;;2.10;;
60851;SDS011;48553;50.766;2.900;2023-09-18T00:47:31;3.67;;;2.30;;
60851;SDS011;48553;50.766;2.900;2023-09-18T00:50:32;3.70;;;2.22;;
60851;SDS011;48553;50.766;2.900;2023-09-18T00:53:32;4.30;;;2.50;;
60851;SDS011;48553;50.766;2.900;2023-09-18T00:56:33;4.05;;;2.25;;
60851;SDS011;48553;50.766;2.900;2023-09-18T00:59:34;3.25;;;1.85;;
60851;SDS011;48553;50.766;2.900;2023-09-18T01:02:34;4.20;;;2.20;;
60851;SDS011;48553;50.766;2.900;2023-09-18T01:05:35;3.42;;;1.95;;
60851;SDS011;48553;50.766;2.900;2023-09-18T01:08:36;4.82;;;2.40;;
60851;SDS011;48553;50.766;2.900;2023-09-18T01:11:41;4.05;;;1.85;;
60851;SDS011;48553;50.766;2.900;2023-09-18T01:18:11;5.43;;;2.30;;
60851;SDS011;48553;50.766;2.900;2023-09-18T01:21:12;5.30;;;2.10;;
60851;SDS011;48553;50.766;2.900;2023-09-18T01:24:12;3.10;;;2.00;;
60851;SDS011;48553;50.766;2.900;2023-09-18T01:27:13;3.67;;;2.17;;
60851;SDS011;48553;50.766;2.900;2023-09-18T01:30:18;3.92;;;1.92;;
60851;SDS011;48553;50.766;2.900;2023-09-18T01:33:18;3.65;;;1.90;;
60851;SDS011;48553;50.766;2.900;2023-09-18T01:36:20;3.83;;;2.10;;
60851;SDS011;48553;50.766;2.900;2023-09-18T01:39:21;5.68;;;2.08;;
60851;SDS011;48553;50.766;2.900;2023-09-18T01:42:21;5.65;;;2.17;;
60851;SDS011;48553;50.766;2.900;2023-09-18T01:45:22;4.28;;;2.35;;
60851;SDS011;48553;50.766;2.900;2023-09-18T01:48:23;3.95;;;1.98;;
60851;SDS011;48553;50.766;2.900;2023-09-18T01:51:23;3.63;;;1.85;;
60851;SDS011;48553;50.766;2.900;2023-09-18T01:54:24;5.10;;;1.85;;
60851;SDS011;48553;50.766;2.900;2023-09-18T01:57:25;2.58;;;1.70;;
60851;SDS011;48553;50.766;2.900;2023-09-18T02:00:25;4.30;;;1.80;;
60851;SDS011;48553;50.766;2.900;2023-09-18T02:03:26;4.27;;;1.90;;
60851;SDS011;48553;50.766;2.900;2023-09-18T02:06:26;6.05;;;1.90;;
60851;SDS011;48553;50.766;2.900;2023-09-18T02:09:26;3.50;;;2.08;;
60851;SDS011;48553;50.766;2.900;2023-09-18T02:12:27;3.05;;;1.88;;
60851;SDS011;48553;50.766;2.900;2023-09-18T02:15:27;6.00;;;1.65;;
60851;SDS011;48553;50.766;2.900;2023-09-18T02:18:32;3.95;;;1.63;;
60851;SDS011;48553;50.766;2.900;2023-09-18T02:21:33;3.67;;;1.65;;
60851;SDS011;48553;50.766;2.900;2023-09-18T02:24:33;4.38;;;1.75;;
60851;SDS011;48553;50.766;2.900;2023-09-18T02:27:34;4.28;;;1.52;;
60851;SDS011;48553;50.766;2.900;2023-09-18T02:30:34;4.38;;;1.48;;
60851;SDS011;48553;50.766;2.900;2023-09-18T02:33:35;3.72;;;1.67;;
60851;SDS011;48553;50.766;2.900;2023-09-18T02:36:36;4.40;;;1.60;;
60851;SDS011;48553;50.766;2.900;2023-09-18T02:39:37;3.90;;;1.42;;
60851;SDS011;48553;50.766;2.900;2023-09-18T02:42:37;5.53;;;1.50;;
60851;SDS011;48553;50.766;2.900;2023-09-18T02:45:37;3.83;;;1.52;;
60851;SDS011;48553;50.766;2.900;2023-09-18T02:48:39;3.28;;;1.50;;
60851;SDS011;48553;50.766;2.900;2023-09-18T02:51:40;3.03;;;1.35;;
60851;SDS011;48553;50.766;2.900;2023-09-18T02:54:40;3.40;;;1.60;;
60851;SDS011;48553;50.766;2.900;2023-09-18T02:57:41;4.35;;;1.50;;
60851;SDS011;48553;50.766;2.900;2023-09-18T03:00:42;3.58;;;1.30;;
60851;SDS011;48553;50.766;2.900;2023-09-18T03:03:43;5.63;;;1.40;;
60851;SDS011;48553;50.766;2.900;2023-09-18T03:06:43;4.50;;;1.40;;
60851;SDS011;48553;50.766;2.900;2023-09-18T03:09:44;2.30;;;1.10;;
60851;SDS011;48553;50.766;2.900;2023-09-18T03:12:47;3.25;;;1.27;;
60851;SDS011;48553;50.766;2.900;2023-09-18T03:15:48;2.88;;;1.23;;
60851;SDS011;48553;50.766;2.900;2023-09-18T03:18:48;2.63;;;1.20;;
60851;SDS011;48553;50.766;2.900;2023-09-18T03:21:49;4.13;;;1.30;;
60851;SDS011;48553;50.766;2.900;2023-09-18T03:24:49;3.28;;;1.05;;
60851;SDS011;48553;50.766;2.900;2023-09-18T03:27:53;2.63;;;0.90;;
60851;SDS011;48553;50.766;2.900;2023-09-18T03:30:55;1.88;;;1.00;;
60851;SDS011;48553;50.766;2.900;2023-09-18T03:33:55;5.32;;;1.08;;
60851;SDS011;48553;50.766;2.900;2023-09-18T03:36:56;3.17;;;1.08;;
60851;SDS011;48553;50.766;2.900;2023-09-18T03:39:56;2.25;;;0.98;;
60851;SDS011;48553;50.766;2.900;2023-09-18T03:42:57;2.17;;;1.00;;
60851;SDS011;48553;50.766;2.900;2023-09-18T03:46:04;2.97;;;0.90;;
60851;SDS011;48553;50.766;2.900;2023-09-18T03:49:05;2.72;;;1.00;;
60851;SDS011;48553;50.766;2.900;2023-09-18T03:52:06;2.20;;;1.00;;
60851;SDS011;48553;50.766;2.900;2023-09-18T03:55:07;2.13;;;0.85;;
60851;SDS011;48553;50.766;2.900;2023-09-18T03:58:08;4.45;;;0.88;;
60851;SDS011;48553;50.766;2.900;2023-09-18T04:01:08;2.70;;;0.98;;
60851;SDS011;48553;50.766;2.900;2023-09-18T04:04:09;4.53;;;1.05;;
60851;SDS011;48553;50.766;2.900;2023-09-18T04:07:09;2.92;;;1.05;;
60851;SDS011;48553;50.766;2.900;2023-09-18T04:10:10;4.38;;;1.10;;
60851;SDS011;48553;50.766;2.900;2023-09-18T04:13:15;3.22;;;0.95;;
60851;SDS011;48553;50.766;2.900;2023-09-18T04:16:15;3.50;;;1.00;;
60851;SDS011;48553;50.766;2.900;2023-09-18T04:19:17;2.83;;;1.10;;
60851;SDS011;48553;50.766;2.900;2023-09-18T04:22:18;3.83;;;1.08;;
60851;SDS011;48553;50.766;2.900;2023-09-18T04:25:18;3.38;;;1.20;;
60851;SDS011;48553;50.766;2.900;2023-09-18T04:28:22;2.40;;;0.90;;
60851;SDS011;48553;50.766;2.900;2023-09-18T04:31:23;3.60;;;1.00;;
60851;SDS011;48553;50.766;2.900;2023-09-18T04:34:23;3.00;;;0.90;;
60851;SDS011;48553;50.766;2.900;2023-09-18T04:37:24;2.00;;;0.90;;
60851;SDS011;48553;50.766;2.900;2023-09-18T04:40:25;2.63;;;0.80;;
60851;SDS011;48553;50.766;2.900;2023-09-18T04:43:26;3.45;;;1.35;;
60851;SDS011;48553;50.766;2.900;2023-09-18T04:46:29;3.17;;;0.77;;
60851;SDS011;48553;50.766;2.900;2023-09-18T04:49:30;2.72;;;1.00;;
60851;SDS011;48553;50.766;2.900;2023-09-18T04:52:30;3.53;;;0.90;;
60851;SDS011;48553;50.766;2.900;2023-09-18T04:55:30;4.05;;;0.77;;
60851;SDS011;48553;50.766;2.900;2023-09-18T04:58:31;2.10;;;0.80;;
60851;SDS011;48553;50.766;2.900;2023-09-18T05:01:32;2.45;;;0.90;;
60851;SDS011;48553;50.766;2.900;2023-09-18T05:04:33;2.53;;;0.98;;
60851;SDS011;48553;50.766;2.900;2023-09-18T05:07:33;3.00;;;1.10;;
60851;SDS011;48553;50.766;2.900;2023-09-18T05:10:34;3.50;;;1.10;;
60851;SDS011;48553;50.766;2.900;2023-09-18T05:13:34;3.45;;;1.00;;
60851;SDS011;48553;50.766;2.900;2023-09-18T05:16:35;2.78;;;1.10;;
60851;SDS011;48553;50.766;2.900;2023-09-18T05:19:35;3.05;;;0.98;;
60851;SDS011;48553;50.766;2.900;2023-09-18T05:22:35;2.75;;;1.10;;
60851;SDS011;48553;50.766;2.900;2023-09-18T05:25:36;2.60;;;1.00;;
60851;SDS011;48553;50.766;2.900;2023-09-18T05:28:38;3.15;;;1.13;;
60851;SDS011;48553;50.766;2.900;2023-09-18T05:31:38;5.10;;;1.30;;
60851;SDS011;48553;50.766;2.900;2023-09-18T05:34:39;3.13;;;1.20;;
60851;SDS011;48553;50.766;2.900;2023-09-18T05:37:40;4.88;;;1.40;;
60851;SDS011;48553;50.766;2.900;2023-09-18T05:40:41;3.33;;;1.20;;
60851;SDS011;48553;50.766;2.900;2023-09-18T05:43:41;4.05;;;1.17;;
60851;SDS011;48553;50.766;2.900;2023-09-18T05:46:42;2.28;;;1.10;;
60851;SDS011;48553;50.766;2.900;2023-09-18T05:49:42;2.75;;;1.30;;
60851;SDS011;48553;50.766;2.900;2023-09-18T05:52:43;2.92;;;1.30;;
60851;SDS011;48553;50.766;2.900;2023-09-18T05:55:44;2.33;;;1.10;;
60851;SDS011;48553;50.766;2.900;2023-09-18T05:58:45;3.03;;;1.20;;
60851;SDS011;48553;50.766;2.900;2023-09-18T06:01:45;2.53;;;1.20;;
60851;SDS011;48553;50.766;2.900;2023-09-18T06:04:46;3.28;;;1.20;;
60851;SDS011;48553;50.766;2.900;2023-09-18T06:07:47;2.55;;;1.10;;
60851;SDS011;48553;50.766;2.900;2023-09-18T06:10:48;2.72;;;1.30;;
60851;SDS011;48553;50.766;2.900;2023-09-18T06:13:49;2.55;;;1.15;;
60851;SDS011;48553;50.766;2.900;2023-09-18T06:16:50;3.75;;;1.40;;
60851;SDS011;48553;50.766;2.900;2023-09-18T06:19:50;4.47;;;1.42;;
60851;SDS011;48553;50.766;2.900;2023-09-18T06:22:50;3.45;;;1.20;;
60851;SDS011;48553;50.766;2.900;2023-09-18T06:25:51;2.15;;;1.20;;
60851;SDS011;48553;50.766;2.900;2023-09-18T06:28:56;2.60;;;1.25;;
60851;SDS011;48553;50.766;2.900;2023-09-18T06:31:56;5.30;;;1.48;;
60851;SDS011;48553;50.766;2.900;2023-09-18T06:34:57;3.80;;;1.60;;
60851;SDS011;48553;50.766;2.900;2023-09-18T06:37:57;5.78;;;1.50;;
60851;SDS011;48553;50.766;2.900;2023-09-18T06:40:59;4.43;;;1.58;;
60851;SDS011;48553;50.766;2.900;2023-09-18T06:44:00;5.28;;;1.80;;
60851;SDS011;48553;50.766;2.900;2023-09-18T06:47:03;5.63;;;1.80;;
60851;SDS011;48553;50.766;2.900;2023-09-18T06:50:04;4.20;;;1.80;;
60851;SDS011;48553;50.766;2.900;2023-09-18T06:53:05;4.53;;;1.90;;
60851;SDS011;48553;50.766;2.900;2023-09-18T06:56:06;4.82;;;1.80;;
60851;SDS011;48553;50.766;2.900;2023-09-18T06:59:06;4.55;;;1.98;;
60851;SDS011;48553;50.766;2.900;2023-09-18T07:02:07;3.90;;;2.00;;
60851;SDS011;48553;50.766;2.900;2023-09-18T07:05:07;4.88;;;2.28;;
60851;SDS011;48553;50.766;2.900;2023-09-18T07:08:08;6.68;;;2.22;;
60851;SDS011;48553;50.766;2.900;2023-09-18T07:11:11;6.15;;;2.40;;
60851;SDS011;48553;50.766;2.900;2023-09-18T07:14:12;4.63;;;2.25;;
60851;SDS011;48553;50.766;2.900;2023-09-18T07:17:12;7.00;;;2.10;;
60851;SDS011;48553;50.766;2.900;2023-09-18T07:20:13;5.57;;;2.30;;
60851;SDS011;48553;50.766;2.900;2023-09-18T07:23:13;4.68;;;2.28;;
60851;SDS011;48553;50.766;2.900;2023-09-18T07:26:14;5.35;;;2.60;;
60851;SDS011;48553;50.766;2.900;2023-09-18T07:29:14;4.57;;;2.55;;
60851;SDS011;48553;50.766;2.900;2023-09-18T07:32:15;6.43;;;2.72;;
60851;SDS011;48553;50.766;2.900;2023-09-18T07:35:16;7.65;;;2.80;;
60851;SDS011;48553;50.766;2.900;2023-09-18T07:38:17;4.43;;;2.45;;
60851;SDS011;48553;50.766;2.900;2023-09-18T07:41:19;7.75;;;2.70;;
60851;SDS011;48553;50.766;2.900;2023-09-18T07:44:21;6.13;;;2.65;;
60851;SDS011;48553;50.766;2.900;2023-09-18T07:47:22;6.18;;;2.67;;
60851;SDS011;48553;50.766;2.900;2023-09-18T07:50:22;7.25;;;2.97;;
60851;SDS011;48553;50.766;2.900;2023-09-18T07:53:23;4.75;;;2.75;;
60851;SDS011;48553;50.766;2.900;2023-09-18T07:59:26;7.53;;;2.92;;
60851;SDS011;48553;50.766;2.900;2023-09-18T08:02:26;5.20;;;2.90;;
60851;SDS011;48553;50.766;2.900;2023-09-18T08:05:28;7.45;;;2.63;;
60851;SDS011;48553;50.766;2.900;2023-09-18T08:08:30;5.97;;;2.65;;
60851;SDS011;48553;50.766;2.900;2023-09-18T08:11:32;6.13;;;2.45;;
60851;SDS011;48553;50.766;2.900;2023-09-18T08:14:33;6.35;;;2.60;;
60851;SDS011;48553;50.766;2.900;2023-09-18T08:17:36;7.40;;;2.75;;
60851;SDS011;48553;50.766;2.900;2023-09-18T08:20:40;4.82;;;2.35;;
60851;SDS011;48553;50.766;2.900;2023-09-18T08:23:43;6.00;;;2.70;;
60851;SDS011;48553;50.766;2.900;2023-09-18T08:26:45;8.45;;;2.53;;
60851;SDS011;48553;50.766;2.900;2023-09-18T08:29:45;6.32;;;2.75;;
60851;SDS011;48553;50.766;2.900;2023-09-18T08:32:46;7.32;;;2.60;;
60851;SDS011;48553;50.766;2.900;2023-09-18T08:35:47;4.80;;;2.17;;
60851;SDS011;48553;50.766;2.900;2023-09-18T08:38:49;5.05;;;2.55;;
60851;SDS011;48553;50.766;2.900;2023-09-18T08:41:50;4.70;;;2.42;;
60851;SDS011;48553;50.766;2.900;2023-09-18T08:44:55;5.57;;;2.80;;
60851;SDS011;48553;50.766;2.900;2023-09-18T08:47:58;7.22;;;2.70;;
60851;SDS011;48553;50.766;2.900;2023-09-18T08:50:59;7.32;;;3.00;;
60851;SDS011;48553;50.766;2.900;2023-09-18T08:53:59;7.65;;;2.80;;
60851;SDS011;48553;50.766;2.900;2023-09-18T08:57:00;5.68;;;2.63;;
60851;SDS011;48553;50.766;2.900;2023-09-18T09:00:01;6.68;;;2.60;;
60851;SDS011;48553;50.766;2.900;2023-09-18T09:03:06;6.90;;;2.80;;
60851;SDS011;48553;50.766;2.900;2023-09-18T09:06:07;7.13;;;2.92;;
60851;SDS011;48553;50.766;2.900;2023-09-18T09:09:09;5.20;;;3.00;;
60851;SDS011;48553;50.766;2.900;2023-09-18T09:12:13;5.07;;;2.67;;
60851;SDS011;48553;50.766;2.900;2023-09-18T09:15:13;5.90;;;2.88;;
60851;SDS011;48553;50.766;2.900;2023-09-18T09:18:13;5.85;;;2.60;;
60851;SDS011;48553;50.766;2.900;2023-09-18T09:21:17;4.07;;;2.60;;
60851;SDS011;48553;50.766;2.900;2023-09-18T09:24:17;5.20;;;2.67;;
60851;SDS011;48553;50.766;2.900;2023-09-18T09:27:18;5.88;;;2.67;;
60851;SDS011;48553;50.766;2.900;2023-09-18T09:30:19;5.85;;;2.63;;
60851;SDS011;48553;50.766;2.900;2023-09-18T09:33:21;5.43;;;2.55;;
60851;SDS011;48553;50.766;2.900;2023-09-18T09:36:24;5.18;;;2.67;;
60851;SDS011;48553;50.766;2.900;2023-09-18T09:39:24;4.93;;;2.40;;
60851;SDS011;48553;50.766;2.900;2023-09-18T09:42:25;4.97;;;2.30;;
60851;SDS011;48553;50.766;2.900;2023-09-18T09:45:29;5.88;;;2.30;;
60851;SDS011;48553;50.766;2.900;2023-09-18T09:48:30;4.38;;;2.28;;
60851;SDS011;48553;50.766;2.900;2023-09-18T09:51:32;5.18;;;2.50;;
60851;SDS011;48553;50.766;2.900;2023-09-18T09:54:34;4.65;;;2.20;;
60851;SDS011;48553;50.766;2.900;2023-09-18T09:57:46;4.50;;;2.35;;
60851;SDS011;48553;50.766;2.900;2023-09-18T10:00:51;4.45;;;2.33;;
60851;SDS011;48553;50.766;2.900;2023-09-18T10:03:55;4.82;;;2.13;;
60851;SDS011;48553;50.766;2.900;2023-09-18T10:06:58;4.32;;;2.20;;
60851;SDS011;48553;50.766;2.900;2023-09-18T10:10:09;5.90;;;2.40;;
60851;SDS011;48553;50.766;2.900;2023-09-18T10:13:12;4.72;;;2.60;;
60851;SDS011;48553;50.766;2.900;2023-09-18T10:16:23;4.38;;;1.92;;
60851;SDS011;48553;50.766;2.900;2023-09-18T10:19:38;4.38;;;2.20;;
60851;SDS011;48553;50.766;2.900;2023-09-18T10:22:45;4.00;;;1.92;;
60851;SDS011;48553;50.766;2.900;2023-09-18T10:25:53;3.42;;;1.98;;
60851;SDS011;48553;50.766;2.900;2023-09-18T10:28:59;4.55;;;2.03;;
60851;SDS011;48553;50.766;2.900;2023-09-18T10:32:03;4.43;;;2.00;;
60851;SDS011;48553;50.766;2.900;2023-09-18T10:35:10;3.47;;;1.88;;
60851;SDS011;48553;50.766;2.900;2023-09-18T10:38:12;4.38;;;1.98;;
60851;SDS011;48553;50.766;2.900;2023-09-18T10:41:15;5.25;;;1.60;;
60851;SDS011;48553;50.766;2.900;2023-09-18T10:44:18;4.63;;;1.70;;
60851;SDS011;48553;50.766;2.900;2023-09-18T10:47:19;4.05;;;1.90;;
60851;SDS011;48553;50.766;2.900;2023-09-18T10:50:25;3.38;;;1.75;;
60851;SDS011;48553;50.766;2.900;2023-09-18T10:53:26;4.63;;;2.00;;
60851;SDS011;48553;50.766;2.900;2023-09-18T10:56:27;4.18;;;1.80;;
60851;SDS011;48553;50.766;2.900;2023-09-18T10:59:27;4.18;;;2.05;;
60851;SDS011;48553;50.766;2.900;2023-09-18T11:02:29;3.15;;;1.80;;
60851;SDS011;48553;50.766;2.900;2023-09-18T11:05:29;3.67;;;1.80;;
60851;SDS011;48553;50.766;2.900;2023-09-18T11:08:32;4.03;;;1.73;;
60851;SDS011;48553;50.766;2.900;2023-09-18T11:11:35;5.38;;;1.75;;
60851;SDS011;48553;50.766;2.900;2023-09-18T11:17:58;2.78;;;1.50;;
60851;SDS011;48553;50.766;2.900;2023-09-18T11:21:09;3.78;;;1.80;;
60851;SDS011;48553;50.766;2.900;2023-09-18T11:27:23;4.22;;;1.88;;
60851;SDS011;48553;50.766;2.900;2023-09-18T11:30:25;4.95;;;1.83;;
60851;SDS011;48553;50.766;2.900;2023-09-18T11:33:38;3.92;;;1.60;;
60851;SDS011;48553;50.766;2.900;2023-09-18T11:36:40;2.92;;;1.55;;
60851;SDS011;48553;50.766;2.900;2023-09-18T11:39:41;3.60;;;1.70;;
60851;SDS011;48553;50.766;2.900;2023-09-18T11:42:59;2.92;;;1.77;;
60851;SDS011;48553;50.766;2.900;2023-09-18T11:46:23;3.42;;;1.75;;
60851;SDS011;48553;50.766;2.900;2023-09-18T11:49:25;5.00;;;1.83;;
60851;SDS011;48553;50.766;2.900;2023-09-18T11:52:30;4.60;;;1.67;;
60851;SDS011;48553;50.766;2.900;2023-09-18T11:55:31;2.75;;;1.52;;
60851;SDS011;48553;50.766;2.900;2023-09-18T11:58:44;3.33;;;1.42;;
60851;SDS011;48553;50.766;2.900;2023-09-18T12:01:54;5.57;;;2.35;;
60851;SDS011;48553;50.766;2.900;2023-09-18T12:05:19;4.25;;;2.20;;
60851;SDS011;48553;50.766;2.900;2023-09-18T12:08:19;5.30;;;2.65;;
60851;SDS011;48553;50.766;2.900;2023-09-18T12:11:21;4.70;;;1.60;;
60851;SDS011;48553;50.766;2.900;2023-09-18T12:14:21;5.50;;;2.00;;
60851;SDS011;48553;50.766;2.900;2023-09-18T12:17:22;3.92;;;1.77;;
60851;SDS011;48553;50.766;2.900;2023-09-18T12:20:22;3.85;;;1.67;;
60851;SDS011;48553;50.766;2.900;2023-09-18T12:23:23;4.47;;;1.77;;
60851;SDS011;48553;50.766;2.900;2023-09-18T12:26:24;4.78;;;1.95;;
60851;SDS011;48553;50.766;2.900;2023-09-18T12:29:26;5.68;;;1.90;;
60851;SDS011;48553;50.766;2.900;2023-09-18T12:32:26;3.65;;;1.70;;
60851;SDS011;48553;50.766;2.900;2023-09-18T12:35:27;6.20;;;1.88;;
60851;SDS011;48553;50.766;2.900;2023-09-18T12:38:29;4.68;;;1.77;;
60851;SDS011;48553;50.766;2.900;2023-09-18T12:41:30;4.10;;;1.98;;
60851;SDS011;48553;50.766;2.900;2023-09-18T12:44:32;4.97;;;1.92;;
60851;SDS011;48553;50.766;2.900;2023-09-18T12:47:32;3.80;;;1.88;;
60851;SDS011;48553;50.766;2.900;2023-09-18T12:50:33;4.85;;;2.00;;
60851;SDS011;48553;50.766;2.900;2023-09-18T12:53:35;3.30;;;1.80;;
60851;SDS011;48553;50.766;2.900;2023-09-18T12:56:39;3.72;;;1.70;;
60851;SDS011;48553;50.766;2.900;2023-09-18T12:59:41;4.22;;;1.70;;
60851;SDS011;48553;50.766;2.900;2023-09-18T13:02:44;3.58;;;1.80;;
60851;SDS011;48553;50.766;2.900;2023-09-18T13:05:44;3.50;;;1.70;;
60851;SDS011;48553;50.766;2.900;2023-09-18T13:08:47;4.28;;;1.60;;
60851;SDS011;48553;50.766;2.900;2023-09-18T13:11:57;2.80;;;1.60;;
60851;SDS011;48553;50.766;2.900;2023-09-18T13:15:00;3.58;;;1.38;;
60851;SDS011;48553;50.766;2.900;2023-09-18T13:18:10;3.30;;;1.48;;
60851;SDS011;48553;50.766;2.900;2023-09-18T13:21:12;2.65;;;1.35;;
60851;SDS011;48553;50.766;2.900;2023-09-18T13:24:28;5.40;;;1.35;;
60851;SDS011;48553;50.766;2.900;2023-09-18T13:27:29;3.90;;;1.20;;
60851;SDS011;48553;50.766;2.900;2023-09-18T13:30:30;2.58;;;1.30;;
60851;SDS011;48553;50.766;2.900;2023-09-18T13:33:31;4.53;;;1.30;;
60851;SDS011;48553;50.766;2.900;2023-09-18T13:36:32;4.35;;;1.33;;
60851;SDS011;48553;50.766;2.900;2023-09-18T13:39:33;4.85;;;1.30;;
60851;SDS011;48553;50.766;2.900;2023-09-18T13:42:34;3.92;;;1.38;;
60851;SDS011;48553;50.766;2.900;2023-09-18T13:45:35;6.13;;;1.50;;
60851;SDS011;48553;50.766;2.900;2023-09-18T13:48:36;4.45;;;1.52;;
60851;SDS011;48553;50.766;2.900;2023-09-18T13:51:38;5.75;;;1.35;;
60851;SDS011;48553;50.766;2.900;2023-09-18T13:54:39;5.38;;;1.27;;
60851;SDS011;48553;50.766;2.900;2023-09-18T13:57:40;7.05;;;1.58;;
60851;SDS011;48553;50.766;2.900;2023-09-18T14:00:41;5.65;;;1.13;;
60851;SDS011;48553;50.766;2.900;2023-09-18T14:03:43;5.28;;;1.50;;
60851;SDS011;48553;50.766;2.900;2023-09-18T14:06:45;6.13;;;1.63;;
60851;SDS011;48553;50.766;2.900;2023-09-18T14:09:45;3.30;;;1.42;;
60851;SDS011;48553;50.766;2.900;2023-09-18T14:12:49;6.53;;;1.40;;
60851;SDS011;48553;50.766;2.900;2023-09-18T14:15:50;3.88;;;1.23;;
60851;SDS011;48553;50.766;2.900;2023-09-18T14:18:50;4.30;;;1.15;;
60851;SDS011;48553;50.766;2.900;2023-09-18T14:21:54;3.90;;;1.20;;
60851;SDS011;48553;50.766;2.900;2023-09-18T14:24:54;5.13;;;1.30;;
60851;SDS011;48553;50.766;2.900;2023-09-18T14:27:54;4.07;;;1.20;;
60851;SDS011;48553;50.766;2.900;2023-09-18T14:30:55;5.15;;;1.38;;
60851;SDS011;48553;50.766;2.900;2023-09-18T14:33:55;3.78;;;1.05;;
60851;SDS011;48553;50.766;2.900;2023-09-18T14:36:57;5.47;;;1.40;;
60851;SDS011;48553;50.766;2.900;2023-09-18T14:39:57;8.80;;;1.48;;
60851;SDS011;48553;50.766;2.900;2023-09-18T14:42:58;4.43;;;1.30;;
60851;SDS011;48553;50.766;2.900;2023-09-18T14:45:58;4.78;;;1.20;;
60851;SDS011;48553;50.766;2.900;2023-09-18T14:49:01;4.60;;;1.30;;
60851;SDS011;48553;50.766;2.900;2023-09-18T14:52:02;5.85;;;1.42;;
60851;SDS011;48553;50.766;2.900;2023-09-18T14:55:03;8.40;;;1.55;;
60851;SDS011;48553;50.766;2.900;2023-09-18T14:58:05;7.57;;;1.48;;
60851;SDS011;48553;50.766;2.900;2023-09-18T15:01:06;8.88;;;1.50;;
60851;SDS011;48553;50.766;2.900;2023-09-18T15:04:06;7.90;;;1.30;;
60851;SDS011;48553;50.766;2.900;2023-09-18T15:07:09;6.80;;;1.52;;
60851;SDS011;48553;50.766;2.900;2023-09-18T15:10:10;7.28;;;1.50;;
60851;SDS011;48553;50.766;2.900;2023-09-18T15:13:11;7.32;;;1.30;;
60851;SDS011;48553;50.766;2.900;2023-09-18T15:16:11;6.60;;;1.25;;
60851;SDS011;48553;50.766;2.900;2023-09-18T15:19:12;6.82;;;1.40;;
60851;SDS011;48553;50.766;2.900;2023-09-18T15:22:14;7.55;;;1.60;;
60851;SDS011;48553;50.766;2.900;2023-09-18T15:25:14;6.25;;;1.42;;
60851;SDS011;48553;50.766;2.900;2023-09-18T15:28:15;4.85;;;1.40;;
60851;SDS011;48553;50.766;2.900;2023-09-18T15:31:17;6.20;;;1.33;;
60851;SDS011;48553;50.766;2.900;2023-09-18T15:34:17;8.63;;;1.50;;
60851;SDS011;48553;50.766;2.900;2023-09-18T15:37:18;9.25;;;1.60;;
60851;SDS011;48553;50.766;2.900;2023-09-18T15:40:20;8.45;;;1.48;;
60851;SDS011;48553;50.766;2.900;2023-09-18T15:43:24;8.70;;;1.45;;
60851;SDS011;48553;50.766;2.900;2023-09-18T15:46:25;7.05;;;1.60;;
60851;SDS011;48553;50.766;2.900;2023-09-18T15:49:25;9.25;;;1.52;;
60851;SDS011;48553;50.766;2.900;2023-09-18T15:52:26;7.15;;;1.60;;
60851;SDS011;48553;50.766;2.900;2023-09-18T15:55:27;6.55;;;1.45;;
60851;SDS011;48553;50.766;2.900;2023-09-18T15:58:27;8.52;;;1.73;;
60851;SDS011;48553;50.766;2.900;2023-09-18T16:01:28;4.45;;;1.35;;
60851;SDS011;48553;50.766;2.900;2023-09-18T16:04:29;9.18;;;1.52;;
60851;SDS011;48553;50.766;2.900;2023-09-18T16:07:30;4.15;;;1.38;;
60851;SDS011;48553;50.766;2.900;2023-09-18T16:10:33;8.07;;;1.63;;
60851;SDS011;48553;50.766;2.900;2023-09-18T16:13:33;11.13;;;1.67;;
60851;SDS011;48553;50.766;2.900;2023-09-18T16:16:33;7.15;;;1.50;;
60851;SDS011;48553;50.766;2.900;2023-09-18T16:19:34;9.00;;;1.42;;
60851;SDS011;48553;50.766;2.900;2023-09-18T16:22:34;7.53;;;1.38;;
60851;SDS011;48553;50.766;2.900;2023-09-18T16:25:35;8.25;;;1.60;;
60851;SDS011;48553;50.766;2.900;2023-09-18T16:28:35;4.68;;;1.30;;
60851;SDS011;48553;50.766;2.900;2023-09-18T16:31:36;8.15;;;1.35;;
60851;SDS011;48553;50.766;2.900;2023-09-18T16:34:36;7.15;;;1.42;;
60851;SDS011;48553;50.766;2.900;2023-09-18T16:37:37;8.60;;;1.52;;
60851;SDS011;48553;50.766;2.900;2023-09-18T16:40:38;7.95;;;1.42;;
60851;SDS011;48553;50.766;2.900;2023-09-18T16:43:39;8.20;;;1.58;;
60851;SDS011;48553;50.766;2.900;2023-09-18T16:46:39;8.50;;;1.67;;
60851;SDS011;48553;50.766;2.900;2023-09-18T16:49:41;10.32;;;1.77;;
60851;SDS011;48553;50.766;2.900;2023-09-18T16:52:42;7.90;;;1.50;;
60851;SDS011;48553;50.766;2.900;2023-09-18T16:55:45;10.52;;;1.67;;
60851;SDS011;48553;50.766;2.900;2023-09-18T16:58:46;12.02;;;1.77;;
60851;SDS011;48553;50.766;2.900;2023-09-18T17:01:46;6.43;;;1.55;;
60851;SDS011;48553;50.766;2.900;2023-09-18T17:04:46;9.90;;;1.55;;
60851;SDS011;48553;50.766;2.900;2023-09-18T17:07:49;7.63;;;1.60;;
60851;SDS011;48553;50.766;2.900;2023-09-18T17:10:50;8.02;;;1.83;;
60851;SDS011;48553;50.766;2.900;2023-09-18T17:13:50;9.95;;;1.55;;
60851;SDS011;48553;50.766;2.900;2023-09-18T17:16:51;11.07;;;2.10;;
60851;SDS011;48553;50.766;2.900;2023-09-18T17:19:52;10.32;;;1.75;;
60851;SDS011;48553;50.766;2.900;2023-09-18T17:22:52;9.02;;;1.88;;
60851;SDS011;48553;50.766;2.900;2023-09-18T17:25:53;11.73;;;1.80;;
60851;SDS011;48553;50.766;2.900;2023-09-18T17:28:53;12.13;;;2.28;;
60851;SDS011;48553;50.766;2.900;2023-09-18T17:31:54;8.13;;;1.80;;
60851;SDS011;48553;50.766;2.900;2023-09-18T17:34:55;10.05;;;2.10;;
60851;SDS011;48553;50.766;2.900;2023-09-18T17:37:55;11.43;;;1.92;;
60851;SDS011;48553;50.766;2.900;2023-09-18T17:40:56;11.05;;;2.20;;
60851;SDS011;48553;50.766;2.900;2023-09-18T17:43:56;10.18;;;2.10;;
60851;SDS011;48553;50.766;2.900;2023-09-18T17:46:56;10.52;;;2.08;;
60851;SDS011;48553;50.766;2.900;2023-09-18T17:49:57;12.18;;;1.95;;
60851;SDS011;48553;50.766;2.900;2023-09-18T17:52:57;12.30;;;1.90;;
60851;SDS011;48553;50.766;2.900;2023-09-18T17:55:58;14.23;;;2.20;;
60851;SDS011;48553;50.766;2.900;2023-09-18T17:58:59;11.63;;;2.28;;
60851;SDS011;48553;50.766;2.900;2023-09-18T18:01:59;12.00;;;2.30;;
60851;SDS011;48553;50.766;2.900;2023-09-18T18:05:00;10.82;;;2.55;;
60851;SDS011;48553;50.766;2.900;2023-09-18T18:08:01;12.77;;;2.50;;
60851;SDS011;48553;50.766;2.900;2023-09-18T18:11:03;10.40;;;2.20;;
60851;SDS011;48553;50.766;2.900;2023-09-18T18:14:04;11.13;;;2.03;;
60851;SDS011;48553;50.766;2.900;2023-09-18T18:17:04;12.95;;;2.25;;
60851;SDS011;48553;50.766;2.900;2023-09-18T18:20:05;13.23;;;2.28;;
60851;SDS011;48553;50.766;2.900;2023-09-18T18:23:07;10.20;;;2.10;;
60851;SDS011;48553;50.766;2.900;2023-09-18T18:26:08;12.88;;;2.38;;